North Island Naval Air Station-Halsey Field
KNZY : now visible

Airfield :











YOU CAN JOIN US ON...

 
LOGIN :

Register | Disclaimer

   EN    FR    IT 

 









Legend :    VFR   Marginal VFR   IFR   Intensive IFR   Very Intensive IFR
Visi :
Ceiling :
>= 8 km
>= 3000ft
5 to 8 km
1000 to 3000 ft
1500m to 5 km
500 to 1000 ft
800 to 1500m
200 to 500 ft
< 800m
< 200 ft
Symbols :   Thunderstorms  Fog  Heavy snow  Heavy precipitations  Wind > 20 kt






- Airport Elevation : 26 ft


KNZY - North Island Naval Air Station-Halsey Field

CURRENT METAR :
  • 242352Z 32012KT 10SM FEW035 SCT150 SCT200 26/17 A2995 RMK AO2 SLP141 CB DSNT NE T02560172 10272 20256 56007

EXPIRED METARs :
  • 242252Z 33012KT 10SM FEW035 SCT150 SCT200 26/17 A2995 RMK AO2 SLP142 CB DSNT N-NE T02610167

TAF TAF KNZY
Valid from the 24 at 23:00 until the 25 at 23:00 UTC


2423/2523 32012KT 9999 FEW020 SCT150 QNH2991INS
FM250200 VRB06KT 9999 SCT015 BKN250 QNH2995INS
FM251700 31012KT 9999 SCT250 QNH2990INS T20/2513Z T27/2521Z FS30170
KZLA FIR / North America



MET'MAP, your aeronautical weather chart ! - Copyright ORBIFLY December 2007 - Disclaimer

ORBIFLY MET'MAP TEAM :

Programming & Development : Alexandra Zaïnal
Original concept : Baudouin d'Aumeries
Technical & hardware support : Manuel Goepfert
Assistance : Marc-Olivier Méhu




SOURCES & CREDITS :

   NOAA       Earth
Advisory